Terminal Aerodrome Forecast
Issued by NWS

Home | Current Version | Previous Version | Text Only | Print | Product List | Glossary On
Versions: 1 2 3 4 5 6 7 8 9 10 11 12 13 14 15 16 17 18 19 20 21 22 23 24 25
000
FTUS43 KSGF 011500 AAB
TAFBBG
TAF AMD
KBBG 011504Z 0115/0212 00000KT P6SM BKN004
     FM011530 VRB03KT P6SM BKN007
     FM011630 VRB04KT P6SM BKN015
     FM011830 10004KT P6SM SCT025 BKN050
     FM020600 VRB03KT 4SM BR SKC=

USA.gov is the U.S. government's official web portal to all federal, state and local government web resources and services.